Briefing drone pour Saint-ferreol-d'auroure

Rechercher une autre localisation

Conditions de vol :


Nous sommes le : Samedi 16 janvier 2021
Il est 23:17 UTC (00:17 LT)

Lever de soleil : 06:51 UTC (07:51 LT)
Coucher de soleil : 16:53 UTC (17:53 LT)

Météo

L'essentiel des conditions de vol

VIGILANCE MÉTÉO FRANCE - Haute-Loire (43)
Vigilance Jaune : Neige-verglas
CARTE TEMSI
CARTES DES FRONTS
METAR de LFMH
LFMH 152300Z AUTO 34007KT 310V010 9999 OVC016 M01/M03 Q1027

Date d'émission: 15/01/2021
Heure d'émission: 23:00 UTC
Vent: 340° (variable du 310° au 010°) pour 7 KT (13 km/h)
Visibilité horizontale: > 10 km
Plafond :
- Couvert à 1600ft (488m)
Température: -1 °C
Point de rosée: -3 °C
Humidité: 86%
Pression (QNH): 1027 hPa
TAF de LFMH
LFMH 152004Z 1520/1618 CNL

Conditions prévues :

Heure d'émission : Bulletin éffectué le 15 à 20:00 UTC
Prévision : Valide du 15 a 20:00 UTC au 16 a 18:00 UTC
Nuages : à 0ft (0 m)
WEBCAM POUR SAINT-FERREOL-D'AUROURE

Réglementation

Voler en sécurité

CARTES AERONAUTIQUE 1/500.000
CARTES VAC (LFMH)
SUP AIP




Chargement des AIP...
NOTAM (SAINT-FERREOL-D'AUROURE + Terrain à proximité / FIR )




Chargement des NOTAMS...
CONTACT PREFECTURE 43


Avertissement : Les données mises à disposition sont indicatives. Oxygène Drone ne pourra être tenu responsable de dégâts causés aux biens et aux personnes.